Time;durP1;ratioP1;P1;durP2;ratioP2;P2;SDS_P1;SDS_P2;PMS_P1;PMS_P2;Temp;Humidity;BMP_temperature;BMP_pressure;BME280_temperature;BME280_humidity;BME280_pressure;Samples;Min_cycle;Max_cycle;Signal;HPM_P1;HPM_P2
2022/01/03 00:01:07;;;;;;;11.43;0.70;;;9.30;99.90;;;;;;5072825;28;20055;-74
2022/01/03 00:03:33;;;;;;;11.57;1.23;;;9.30;99.90;;;;;;5073346;28;20074;-74
2022/01/03 00:05:58;;;;;;;19.90;1.45;;;9.40;99.90;;;;;;5073352;28;20056;-76
2022/01/03 00:08:24;;;;;;;13.38;1.38;;;9.40;99.90;;;;;;5072786;28;20051;-76
2022/01/03 00:10:51;;;;;;;10.43;1.27;;;9.40;99.90;;;;;;5072731;28;20471;-76
2022/01/03 00:13:19;;;;;;;11.50;1.90;;;9.40;99.90;;;;;;5073002;28;20044;-75
2022/01/03 00:15:45;;;;;;;17.88;1.98;;;9.30;99.90;;;;;;5072812;28;20044;-76
2022/01/03 00:18:12;;;;;;;13.07;1.23;;;9.30;99.90;;;;;;5072989;28;20061;-75
2022/01/03 00:20:39;;;;;;;13.13;1.85;;;9.30;99.90;;;;;;5073979;28;20060;-69
2022/01/03 00:23:07;;;;;;;13.55;1.52;;;9.30;99.90;;;;;;5090925;28;20112;-71
2022/01/03 00:25:38;;;;;;;15.60;1.55;;;9.30;99.90;;;;;;5073095;28;20044;-76
2022/01/03 00:28:24;;;;;;;13.65;1.27;;;9.30;99.90;;;;;;5090615;28;20079;-74
2022/01/03 00:30:55;;;;;;;11.88;1.48;;;9.20;99.90;;;;;;5077088;28;20047;-75
2022/01/03 00:33:21;;;;;;;12.02;1.50;;;9.20;99.90;;;;;;5091117;28;20047;-75
2022/01/03 00:35:54;;;;;;;10.88;1.77;;;9.20;99.90;;;;;;5072369;28;20052;-72
2022/01/03 00:38:21;;;;;;;11.73;1.15;;;9.30;99.90;;;;;;5072806;28;20040;-72
2022/01/03 00:40:47;;;;;;;18.75;1.70;;;9.20;99.90;;;;;;5073189;28;20408;-73
2022/01/03 00:43:15;;;;;;;15.43;2.03;;;9.30;99.90;;;;;;5078908;28;20048;-74
2022/01/03 00:45:41;;;;;;;15.32;1.92;;;9.30;99.90;;;;;;5073067;28;20040;-74
2022/01/03 00:48:09;;;;;;;15.35;1.60;;;9.30;99.90;;;;;;5072721;28;20051;-72
2022/01/03 00:50:35;;;;;;;8.38;1.13;;;9.40;99.90;;;;;;5068948;28;20040;-74
2022/01/03 00:53:01;;;;;;;16.17;1.38;;;9.40;99.90;;;;;;5077235;28;20177;-75
2022/01/03 00:55:26;;;;;;;11.25;1.60;;;9.40;99.90;;;;;;5072722;28;20771;-76
2022/01/03 00:58:16;;;;;;;13.18;2.20;;;9.40;99.90;;;;;;5071394;28;20040;-75
2022/01/03 01:00:45;;;;;;;15.20;2.03;;;9.40;99.90;;;;;;5072788;28;20044;-76
2022/01/03 01:03:25;;;;;;;13.35;2.15;;;9.30;99.90;;;;;;5055617;28;20092;-76
2022/01/03 01:05:53;;;;;;;15.15;1.33;;;9.20;99.90;;;;;;5072581;28;20047;-72
2022/01/03 01:08:23;;;;;;;19.17;1.40;;;9.20;99.90;;;;;;5072251;28;20845;-77
2022/01/03 01:10:51;;;;;;;15.13;1.23;;;9.20;99.90;;;;;;5072137;28;20040;-74
2022/01/03 01:13:18;;;;;;;12.90;1.30;;;9.20;99.90;;;;;;5090515;28;20048;-76
2022/01/03 01:15:43;;;;;;;15.40;1.50;;;9.20;99.90;;;;;;5072632;28;20047;-76
2022/01/03 01:18:10;;;;;;;14.25;1.27;;;9.20;99.90;;;;;;5072265;28;20101;-76
2022/01/03 01:20:39;;;;;;;22.95;1.98;;;9.20;99.90;;;;;;5072778;28;20052;-75
2022/01/03 01:23:06;;;;;;;11.40;1.15;;;9.20;99.90;;;;;;5072832;28;20129;-75
2022/01/03 01:28:02;;;;;;;12.65;1.75;;;9.30;99.90;;;;;;5071918;28;20052;-75
2022/01/03 01:30:28;;;;;;;11.35;1.45;;;9.40;99.90;;;;;;5090642;28;20044;-74
2022/01/03 01:33:03;;;;;;;14.32;1.67;;;9.40;99.90;;;;;;5071882;28;20043;-74
2022/01/03 01:35:41;;;;;;;12.18;1.23;;;9.40;99.90;;;;;;5072220;28;20097;-74
2022/01/03 01:38:09;;;;;;;15.70;1.25;;;9.40;99.90;;;;;;5072823;28;20158;-75
2022/01/03 01:40:46;;;;;;;13.85;1.27;;;9.30;99.90;;;;;;5076124;28;20058;-72
2022/01/03 01:43:14;;;;;;;9.82;1.48;;;9.30;99.90;;;;;;5076017;28;20436;-74
2022/01/03 01:45:43;;;;;;;14.70;1.35;;;9.30;99.90;;;;;;5076165;28;20043;-75
2022/01/03 01:48:12;;;;;;;16.42;1.67;;;9.20;99.90;;;;;;5075758;28;20036;-73
2022/01/03 01:50:40;;;;;;;14.63;1.30;;;9.30;99.90;;;;;;5076149;28;20044;-72
2022/01/03 01:53:06;;;;;;;9.35;1.40;;;9.20;99.90;;;;;;5093890;28;20188;-74
2022/01/03 01:55:32;;;;;;;12.95;1.33;;;9.30;99.90;;;;;;5059335;28;20087;-71
2022/01/03 01:58:01;;;;;;;15.80;2.05;;;9.20;99.90;;;;;;5074679;28;20071;-71
2022/01/03 02:00:29;;;;;;;16.13;1.80;;;9.30;99.90;;;;;;5075421;28;20139;-74
2022/01/03 02:03:13;;;;;;;17.42;1.75;;;9.20;99.90;;;;;;5076367;28;20036;-74
2022/01/03 02:05:40;;;;;;;14.60;1.27;;;9.10;99.90;;;;;;5076129;28;20048;-73
2022/01/03 02:08:16;;;;;;;14.07;1.40;;;9.10;99.90;;;;;;5075557;28;20036;-71
2022/01/03 02:11:04;;;;;;;14.25;1.42;;;9.10;99.90;;;;;;5075905;28;20127;-72
2022/01/03 02:13:31;;;;;;;14.70;1.88;;;9.10;99.90;;;;;;5075646;28;20044;-73
2022/01/03 02:16:00;;;;;;;15.02;1.95;;;9.00;99.90;;;;;;5074988;28;20086;-75
2022/01/03 02:18:26;;;;;;;16.83;1.95;;;9.00;99.90;;;;;;5075595;28;20044;-74
2022/01/03 02:20:53;;;;;;;14.45;1.88;;;8.90;99.90;;;;;;5075515;28;20388;-74
2022/01/03 02:23:18;;;;;;;13.98;1.60;;;8.90;99.90;;;;;;5074648;28;20071;-72
2022/01/03 02:25:44;;;;;;;18.85;1.90;;;8.90;99.90;;;;;;5093222;28;20408;-73
2022/01/03 02:28:10;;;;;;;16.75;1.80;;;8.90;99.90;;;;;;5092859;28;20048;-74
2022/01/03 02:30:36;;;;;;;12.07;1.00;;;8.90;99.90;;;;;;5093693;28;20039;-75
2022/01/03 02:33:03;;;;;;;15.13;1.90;;;9.00;99.90;;;;;;5075495;28;20040;-73
2022/01/03 02:35:33;;;;;;;14.80;1.77;;;8.90;99.90;;;;;;5074139;28;20044;-74
2022/01/03 02:37:58;;;;;;;13.98;1.83;;;8.90;99.90;;;;;;5058590;28;20051;-74
2022/01/03 02:40:24;;;;;;;14.80;2.08;;;8.90;99.90;;;;;;5075032;28;20039;-74
2022/01/03 02:42:50;;;;;;;12.85;1.48;;;8.80;99.90;;;;;;5074736;28;20048;-73
2022/01/03 02:45:21;;;;;;;17.42;2.28;;;8.80;99.90;;;;;;5075340;28;20370;-73
2022/01/03 02:47:52;;;;;;;17.33;2.20;;;8.90;99.90;;;;;;5055307;28;20068;-70
2022/01/03 02:50:21;;;;;;;16.45;1.70;;;8.80;99.90;;;;;;5073008;28;20044;-73
2022/01/03 02:52:47;;;;;;;12.65;1.33;;;8.80;99.90;;;;;;5075132;28;20048;-73
2022/01/03 02:55:14;;;;;;;17.98;2.17;;;8.90;99.90;;;;;;5074521;28;20043;-73
2022/01/03 02:57:43;;;;;;;20.67;2.22;;;8.90;99.90;;;;;;5074308;28;20155;-72
2022/01/03 03:00:15;;;;;;;19.30;1.83;;;8.90;99.90;;;;;;5092622;28;20117;-71
2022/01/03 03:02:41;;;;;;;17.60;1.63;;;8.90;99.90;;;;;;5074930;28;20055;-73
2022/01/03 03:05:08;;;;;;;12.40;1.90;;;8.90;99.90;;;;;;5074070;28;20419;-74
2022/01/03 03:07:35;;;;;;;18.98;2.10;;;8.90;99.90;;;;;;5092811;28;20087;-75
2022/01/03 03:10:06;;;;;;;16.15;2.42;;;8.90;99.90;;;;;;5074703;28;20097;-73
2022/01/03 03:12:32;;;;;;;20.58;2.10;;;8.90;99.90;;;;;;5074017;28;20051;-73
2022/01/03 03:14:57;;;;;;;13.07;1.45;;;8.90;99.90;;;;;;5074467;28;20040;-74
2022/01/03 03:17:23;;;;;;;21.30;2.40;;;8.90;99.90;;;;;;5057443;28;20520;-74
2022/01/03 03:19:59;;;;;;;20.38;2.08;;;8.80;99.90;;;;;;5074504;28;20048;-74
2022/01/03 03:22:28;;;;;;;19.10;2.58;;;8.80;99.90;;;;;;5074693;28;20488;-74
2022/01/03 03:25:15;;;;;;;15.52;2.20;;;8.80;99.90;;;;;;5091240;28;20500;-74
2022/01/03 03:27:44;;;;;;;17.55;2.28;;;8.80;99.90;;;;;;5072504;28;20123;-73
2022/01/03 03:30:16;;;;;;;20.85;2.03;;;8.80;99.90;;;;;;5074509;28;20040;-75
2022/01/03 03:32:43;;;;;;;18.25;2.40;;;8.80;99.90;;;;;;5073340;28;20044;-73
2022/01/03 03:35:10;;;;;;;17.48;2.10;;;8.90;99.90;;;;;;5074771;28;20047;-74
2022/01/03 03:37:35;;;;;;;16.38;2.03;;;9.00;99.90;;;;;;5074116;28;20501;-75
2022/01/03 03:40:01;;;;;;;19.10;2.28;;;9.00;99.90;;;;;;5091758;28;20183;-75
2022/01/03 03:42:27;;;;;;;21.52;2.13;;;9.10;99.90;;;;;;5092282;28;20079;-71
2022/01/03 03:44:53;;;;;;;16.35;1.65;;;9.10;99.90;;;;;;5092014;28;20437;-74
2022/01/03 03:47:19;;;;;;;18.58;1.73;;;9.10;99.90;;;;;;5091656;28;20042;-73
2022/01/03 03:49:44;;;;;;;19.75;2.70;;;9.10;99.90;;;;;;5092331;28;20404;-74
2022/01/03 03:52:10;;;;;;;18.08;2.30;;;9.20;99.90;;;;;;5091877;28;20075;-74
2022/01/03 03:54:36;;;;;;;21.63;2.08;;;9.20;99.90;;;;;;5072458;28;20503;-74
2022/01/03 03:57:04;;;;;;;18.58;2.10;;;9.20;99.90;;;;;;5091543;28;20066;-73
2022/01/03 03:59:30;;;;;;;19.58;2.53;;;9.30;99.90;;;;;;5091177;28;20523;-73
2022/01/03 04:01:57;;;;;;;16.67;1.95;;;9.30;99.90;;;;;;5073844;28;20051;-73
2022/01/03 04:04:23;;;;;;;10.55;1.45;;;9.40;99.90;;;;;;5092032;28;20104;-73
2022/01/03 04:06:49;;;;;;;17.60;2.25;;;9.40;99.90;;;;;;5055983;28;20043;-73
2022/01/03 04:09:14;;;;;;;24.85;2.40;;;9.40;99.90;;;;;;5073806;28;20189;-73
2022/01/03 04:11:40;;;;;;;15.88;2.40;;;9.40;99.90;;;;;;5073877;28;20047;-72
2022/01/03 04:14:06;;;;;;;15.80;2.00;;;9.40;99.90;;;;;;5073114;28;20101;-74
2022/01/03 04:16:32;;;;;;;12.38;1.65;;;9.40;99.90;;;;;;5072967;28;20488;-73
2022/01/03 04:18:58;;;;;;;15.45;1.70;;;9.40;99.90;;;;;;5073259;28;20599;-74
2022/01/03 04:21:25;;;;;;;17.58;2.42;;;9.40;99.90;;;;;;5072743;28;20052;-73
2022/01/03 04:23:52;;;;;;;21.02;2.78;;;9.40;99.90;;;;;;5071200;28;20101;-74
2022/01/03 04:26:18;;;;;;;20.25;3.58;;;9.40;99.90;;;;;;5073080;28;20079;-73
2022/01/03 04:28:44;;;;;;;16.27;2.58;;;9.40;99.90;;;;;;5090624;28;20079;-74
2022/01/03 04:31:10;;;;;;;19.85;2.63;;;9.50;99.90;;;;;;5089791;28;20500;-74
2022/01/03 04:33:36;;;;;;;22.20;2.33;;;9.40;99.90;;;;;;5072898;28;20044;-70
2022/01/03 04:36:03;;;;;;;19.63;2.30;;;9.50;99.90;;;;;;5090904;28;20044;-70
2022/01/03 04:38:29;;;;;;;24.38;2.35;;;9.50;99.90;;;;;;5072627;28;20087;-72
2022/01/03 04:40:54;;;;;;;18.63;2.60;;;9.40;99.90;;;;;;5073244;28;20118;-74
2022/01/03 04:43:20;;;;;;;16.30;2.60;;;9.40;99.90;;;;;;5090448;28;20048;-73
2022/01/03 04:45:46;;;;;;;21.23;2.78;;;9.40;99.90;;;;;;5091013;28;20054;-71
2022/01/03 04:48:11;;;;;;;23.38;2.58;;;9.30;99.90;;;;;;5072917;28;20040;-70
2022/01/03 04:50:37;;;;;;;22.17;2.88;;;9.30;99.90;;;;;;5072138;28;20055;-73
2022/01/03 04:53:03;;;;;;;28.80;3.15;;;9.30;99.90;;;;;;5091404;28;20043;-75
2022/01/03 04:55:29;;;;;;;19.95;2.38;;;9.20;99.90;;;;;;5054987;28;20056;-74
2022/01/03 04:57:54;;;;;;;21.23;2.90;;;9.20;99.90;;;;;;5071068;28;20047;-76
2022/01/03 05:00:20;;;;;;;22.73;3.33;;;9.20;99.90;;;;;;5072396;28;20071;-76
2022/01/03 05:02:46;;;;;;;18.15;2.28;;;9.10;99.90;;;;;;5055550;28;20093;-76
2022/01/03 05:05:12;;;;;;;25.58;2.45;;;9.10;99.90;;;;;;5072455;28;20549;-76
2022/01/03 05:07:40;;;;;;;18.48;2.75;;;9.10;99.90;;;;;;5073186;28;20047;-75
2022/01/03 05:10:05;;;;;;;26.13;2.92;;;9.10;99.90;;;;;;5071936;28;20787;-78
2022/01/03 05:12:31;;;;;;;22.05;2.78;;;9.10;99.90;;;;;;5069090;28;20082;-75
2022/01/03 05:14:57;;;;;;;16.55;2.65;;;9.10;99.90;;;;;;5066819;28;20503;-76
2022/01/03 05:17:23;;;;;;;22.17;2.42;;;9.00;99.90;;;;;;5078639;28;20048;-76
2022/01/03 05:19:48;;;;;;;23.60;2.65;;;9.00;99.90;;;;;;5079192;28;20395;-76
2022/01/03 05:22:14;;;;;;;21.23;2.33;;;9.00;99.90;;;;;;5079215;28;20048;-76
2022/01/03 05:24:39;;;;;;;16.42;3.08;;;9.00;99.90;;;;;;5076670;28;20055;-74
2022/01/03 05:27:05;;;;;;;22.73;2.72;;;9.00;99.90;;;;;;5079379;28;20036;-73
2022/01/03 05:29:32;;;;;;;18.98;2.05;;;9.00;99.90;;;;;;5079260;28;20123;-74
2022/01/03 05:31:58;;;;;;;21.25;2.90;;;9.00;99.90;;;;;;5078503;28;20059;-74
2022/01/03 05:34:23;;;;;;;23.95;2.78;;;9.00;99.90;;;;;;5079092;28;20048;-77
2022/01/03 05:36:50;;;;;;;21.38;2.80;;;9.00;99.90;;;;;;5078556;28;20054;-77
2022/01/03 05:39:15;;;;;;;21.67;3.03;;;9.00;99.90;;;;;;5078755;28;20047;-75
2022/01/03 05:41:41;;;;;;;20.55;2.17;;;8.90;99.90;;;;;;5078766;28;20044;-76
2022/01/03 05:44:08;;;;;;;16.50;2.60;;;8.90;99.90;;;;;;5079712;28;20134;-76
2022/01/03 05:46:34;;;;;;;25.27;2.90;;;8.90;99.90;;;;;;5061246;28;20036;-76
2022/01/03 05:49:00;;;;;;;28.13;2.70;;;8.90;99.90;;;;;;5079135;28;20457;-76
2022/01/03 05:51:27;;;;;;;18.60;2.42;;;8.80;99.90;;;;;;5078383;28;20123;-76
2022/01/03 05:53:53;;;;;;;24.30;3.10;;;8.90;99.90;;;;;;5076908;28;20044;-76
2022/01/03 05:56:19;;;;;;;25.05;3.33;;;8.90;99.90;;;;;;5077407;28;20101;-76
2022/01/03 05:58:45;;;;;;;28.98;3.22;;;9.00;99.90;;;;;;5097210;28;20070;-75
2022/01/03 06:01:11;;;;;;;20.35;3.20;;;9.10;99.90;;;;;;5077901;28;20431;-75
2022/01/03 06:03:39;;;;;;;22.40;2.47;;;9.00;99.90;;;;;;5079323;28;20052;-73
2022/01/03 06:06:19;;;;;;;24.77;2.63;;;9.00;99.90;;;;;;5078266;28;20074;-75
2022/01/03 06:08:45;;;;;;;18.55;2.70;;;9.00;99.90;;;;;;5079006;28;20040;-75
2022/01/03 06:11:11;;;;;;;19.92;2.58;;;9.00;99.90;;;;;;5078462;28;20032;-76
2022/01/03 06:13:37;;;;;;;22.50;2.88;;;8.90;99.90;;;;;;5078792;28;20047;-74
2022/01/03 06:16:03;;;;;;;24.65;2.80;;;8.90;99.90;;;;;;5078355;28;20044;-72
2022/01/03 06:18:28;;;;;;;27.10;3.45;;;8.80;99.90;;;;;;5078613;28;20044;-72
2022/01/03 06:20:54;;;;;;;19.85;2.42;;;8.70;99.90;;;;;;5077827;28;20138;-72
2022/01/03 06:23:20;;;;;;;25.40;3.47;;;8.70;99.90;;;;;;5077591;28;20075;-71
2022/01/03 06:25:47;;;;;;;21.77;2.45;;;8.70;99.90;;;;;;5076525;28;20044;-73
2022/01/03 06:28:12;;;;;;;25.70;3.10;;;8.60;99.90;;;;;;5071209;28;20094;-74
2022/01/03 06:30:40;;;;;;;25.38;2.42;;;8.60;99.90;;;;;;5079483;28;20075;-74
2022/01/03 06:33:07;;;;;;;16.88;2.53;;;8.60;99.90;;;;;;5074182;28;20051;-74
2022/01/03 06:35:35;;;;;;;18.83;2.80;;;8.60;99.90;;;;;;5074536;28;20055;-74
2022/01/03 06:38:02;;;;;;;23.23;2.80;;;8.70;99.90;;;;;;5075223;28;20047;-75
2022/01/03 06:40:28;;;;;;;22.23;2.80;;;8.60;99.90;;;;;;5075215;28;20048;-74
2022/01/03 06:42:54;;;;;;;22.30;3.13;;;8.60;99.90;;;;;;5074292;28;20054;-75
2022/01/03 06:45:20;;;;;;;24.65;3.08;;;8.60;99.90;;;;;;5075156;28;20044;-72
2022/01/03 06:47:46;;;;;;;24.27;2.40;;;8.70;99.90;;;;;;5074969;28;20086;-75
2022/01/03 06:50:12;;;;;;;20.15;2.47;;;8.80;99.90;;;;;;5074449;28;20040;-75
2022/01/03 06:52:40;;;;;;;23.02;2.60;;;8.80;99.90;;;;;;5093084;28;20048;-75
2022/01/03 06:55:08;;;;;;;24.50;2.72;;;8.80;99.90;;;;;;5067888;28;20071;-76
2022/01/03 06:57:34;;;;;;;19.88;3.13;;;8.80;99.90;;;;;;5073981;28;20056;-75
2022/01/03 06:59:59;;;;;;;22.77;2.90;;;8.80;99.90;;;;;;5074837;28;20044;-76
2022/01/03 07:02:25;;;;;;;18.00;2.78;;;8.90;99.90;;;;;;5074246;28;20044;-74
2022/01/03 07:04:50;;;;;;;28.33;2.53;;;8.90;99.90;;;;;;5075237;28;20059;-72
2022/01/03 07:07:16;;;;;;;22.55;2.80;;;9.00;99.90;;;;;;5092537;28;20392;-75
2022/01/03 07:09:42;;;;;;;29.67;3.03;;;9.00;99.90;;;;;;5074318;28;20044;-73
2022/01/03 07:12:08;;;;;;;19.45;3.45;;;9.10;99.90;;;;;;5074658;28;20100;-72
2022/01/03 07:19:53;;;;;;;20.65;2.55;;;9.20;99.90;;;;;;5074697;28;20476;-74
2022/01/03 07:22:19;;;;;;;18.50;3.15;;;9.20;99.90;;;;;;5074146;28;20064;-74
2022/01/03 07:24:45;;;;;;;31.70;3.35;;;9.10;99.90;;;;;;5073498;28;20043;-74
2022/01/03 07:27:12;;;;;;;21.58;3.13;;;9.20;99.90;;;;;;5057098;28;20101;-73
2022/01/03 07:29:39;;;;;;;21.80;2.90;;;9.20;99.90;;;;;;5074000;28;20186;-74
2022/01/03 07:32:05;;;;;;;26.77;2.92;;;9.20;99.90;;;;;;5073701;28;20120;-74
2022/01/03 07:34:31;;;;;;;24.50;3.22;;;9.20;99.90;;;;;;5074319;28;20044;-74
2022/01/03 07:36:57;;;;;;;24.58;4.03;;;9.20;99.90;;;;;;5072242;28;20055;-76
2022/01/03 07:39:23;;;;;;;27.15;3.47;;;9.30;99.90;;;;;;5091618;28;20403;-74
2022/01/03 07:41:49;;;;;;;29.52;3.53;;;9.20;99.90;;;;;;5091308;28;20051;-76
2022/01/03 07:44:14;;;;;;;30.27;3.28;;;9.30;99.90;;;;;;5074289;28;20040;-74
2022/01/03 07:46:40;;;;;;;23.23;3.20;;;9.30;99.90;;;;;;5069877;28;20066;-74
2022/01/03 07:49:06;;;;;;;25.85;3.33;;;9.30;99.90;;;;;;5069766;28;20048;-75
2022/01/03 07:51:32;;;;;;;31.40;4.60;;;9.40;99.90;;;;;;5072633;28;20151;-80
2022/01/03 07:53:59;;;;;;;25.17;3.28;;;9.40;99.90;;;;;;5074033;28;20078;-76
2022/01/03 07:56:25;;;;;;;23.77;2.70;;;9.40;99.90;;;;;;5056741;28;20392;-75
2022/01/03 07:58:51;;;;;;;23.27;3.03;;;9.40;99.90;;;;;;5071779;28;20044;-75
2022/01/03 08:01:16;;;;;;;19.15;3.38;;;9.40;99.90;;;;;;5072869;28;20079;-76
2022/01/03 08:03:42;;;;;;;20.00;2.78;;;9.50;99.90;;;;;;5055811;28;20040;-76
2022/01/03 08:06:09;;;;;;;25.65;3.13;;;9.50;99.90;;;;;;5072961;28;20044;-75
2022/01/03 08:08:39;;;;;;;25.45;3.03;;;9.50;99.90;;;;;;5040522;28;20048;-74
2022/01/03 08:11:05;;;;;;;30.10;3.53;;;9.50;99.90;;;;;;5055995;28;20044;-75
2022/01/03 08:13:31;;;;;;;23.83;3.35;;;9.50;99.90;;;;;;5091407;28;20101;-76
2022/01/03 08:15:56;;;;;;;26.95;4.00;;;9.50;99.90;;;;;;5072069;28;20055;-76
2022/01/03 08:18:22;;;;;;;24.17;3.72;;;9.50;99.90;;;;;;5073046;28;20049;-74
2022/01/03 08:20:50;;;;;;;29.90;4.18;;;9.60;99.90;;;;;;5065996;28;20076;-77
2022/01/03 08:23:15;;;;;;;21.75;3.05;;;9.60;99.90;;;;;;5060820;28;21662;-77
2022/01/03 08:25:41;;;;;;;27.00;3.50;;;9.60;99.90;;;;;;5066033;28;20054;-77
2022/01/03 08:28:08;;;;;;;20.90;3.33;;;9.60;99.90;;;;;;5070569;28;20399;-76
2022/01/03 08:30:35;;;;;;;26.67;4.00;;;9.60;99.90;;;;;;5072451;28;21071;-75
2022/01/03 08:33:02;;;;;;;19.60;3.33;;;9.60;99.90;;;;;;5091671;28;20063;-75
2022/01/03 08:35:28;;;;;;;21.33;2.55;;;9.60;99.90;;;;;;5069979;28;20140;-74
2022/01/03 08:37:54;;;;;;;34.30;4.47;;;9.60;99.90;;;;;;5069990;28;20086;-75
2022/01/03 08:40:20;;;;;;;21.73;3.95;;;9.60;99.90;;;;;;5073236;28;20446;-73
2022/01/03 08:42:46;;;;;;;22.63;3.38;;;9.70;99.90;;;;;;5071143;28;20039;-76
2022/01/03 08:45:12;;;;;;;25.20;2.53;;;9.60;99.90;;;;;;5072882;28;20044;-76
2022/01/03 08:47:38;;;;;;;18.88;2.65;;;9.70;99.90;;;;;;5071044;28;20032;-76
2022/01/03 08:50:05;;;;;;;23.75;3.05;;;9.70;99.90;;;;;;5071617;28;20052;-76
2022/01/03 08:52:31;;;;;;;21.67;3.33;;;9.70;99.90;;;;;;5070433;28;20048;-75
2022/01/03 08:54:56;;;;;;;20.70;2.55;;;9.70;99.90;;;;;;5072343;28;20044;-75
2022/01/03 08:57:22;;;;;;;22.02;3.08;;;9.70;99.90;;;;;;5071948;28;20126;-74
2022/01/03 08:59:49;;;;;;;22.58;3.30;;;9.70;99.90;;;;;;5049561;28;20050;-74
2022/01/03 09:02:16;;;;;;;19.95;2.30;;;9.70;99.90;;;;;;5063542;28;20480;-75
2022/01/03 09:04:45;;;;;;;18.83;2.78;;;9.80;99.90;;;;;;5071048;28;20123;-75
2022/01/03 09:07:12;;;;;;;23.55;2.60;;;9.80;99.90;;;;;;5069795;28;20047;-76
2022/01/03 09:09:38;;;;;;;28.98;3.47;;;9.80;99.90;;;;;;5072688;28;20040;-75
2022/01/03 09:12:06;;;;;;;21.05;3.35;;;9.80;99.90;;;;;;5071220;28;20392;-75
2022/01/03 09:14:33;;;;;;;25.70;3.08;;;9.80;99.90;;;;;;5069908;28;20480;-75
2022/01/03 09:16:58;;;;;;;25.90;3.42;;;9.80;99.90;;;;;;5071686;28;20063;-75
2022/01/03 09:19:24;;;;;;;21.02;2.80;;;9.90;99.90;;;;;;5072310;28;20044;-75
2022/01/03 09:21:50;;;;;;;21.75;2.95;;;9.90;99.90;;;;;;5070600;28;20086;-74
2022/01/03 09:24:30;;;;;;;20.42;2.78;;;9.90;99.80;;;;;;5066710;28;20036;-75
2022/01/03 09:29:41;;;;;;;19.35;2.78;;;9.90;99.70;;;;;;5079963;28;20047;-75
2022/01/03 09:32:07;;;;;;;27.77;2.90;;;10.00;99.10;;;;;;5092328;28;20112;-75
2022/01/03 09:34:33;;;;;;;26.15;2.55;;;10.10;98.90;;;;;;5093003;28;20046;-75
2022/01/03 09:37:01;;;;;;;19.90;3.25;;;10.00;98.90;;;;;;5092448;28;20089;-75
2022/01/03 09:39:27;;;;;;;23.15;2.30;;;10.10;98.70;;;;;;5092482;28;20164;-75
2022/01/03 09:42:05;;;;;;;23.08;2.75;;;10.10;99.00;;;;;;5074686;28;20044;-75
2022/01/03 09:44:32;;;;;;;18.20;1.92;;;10.10;98.50;;;;;;5076102;28;20111;-75
2022/01/03 09:47:04;;;;;;;21.40;2.50;;;10.00;98.50;;;;;;5092459;28;20054;-76
2022/01/03 09:49:35;;;;;;;18.92;2.50;;;10.00;98.60;;;;;;5090496;28;20346;-76
2022/01/03 09:52:03;;;;;;;16.83;2.17;;;10.10;98.40;;;;;;5090771;28;20052;-77
2022/01/03 09:54:29;;;;;;;19.08;2.38;;;10.10;98.20;;;;;;5091018;28;20046;-76
2022/01/03 09:56:58;;;;;;;17.75;2.45;;;10.00;98.00;;;;;;5092099;28;20047;-76
2022/01/03 09:59:24;;;;;;;17.55;2.28;;;10.00;98.20;;;;;;5092062;28;20048;-75
2022/01/03 10:01:52;;;;;;;22.10;2.92;;;10.00;98.20;;;;;;5073787;28;20040;-76
2022/01/03 10:04:19;;;;;;;16.55;2.15;;;10.00;98.10;;;;;;5087566;28;20044;-76
2022/01/03 10:06:45;;;;;;;23.77;2.70;;;9.90;98.10;;;;;;5095935;28;20052;-76
2022/01/03 10:09:11;;;;;;;17.00;1.92;;;9.90;98.20;;;;;;5091859;28;20071;-76
2022/01/03 10:11:37;;;;;;;20.08;2.38;;;10.00;97.90;;;;;;5093320;28;20055;-76
2022/01/03 10:14:03;;;;;;;24.77;2.65;;;10.00;98.10;;;;;;5109329;28;20507;-76
2022/01/03 10:16:29;;;;;;;17.95;2.83;;;10.10;97.90;;;;;;5096075;28;20075;-76
2022/01/03 10:18:55;;;;;;;20.25;2.00;;;10.10;97.90;;;;;;5076669;28;20043;-76
2022/01/03 10:21:45;;;;;;;16.05;2.15;;;10.20;98.00;;;;;;5095968;28;20186;-76
2022/01/03 10:24:14;;;;;;;21.23;2.03;;;10.20;97.70;;;;;;5096143;28;20525;-76
2022/01/03 10:26:42;;;;;;;17.02;2.08;;;10.30;97.70;;;;;;5095337;28;20499;-76
2022/01/03 10:29:12;;;;;;;16.73;2.22;;;10.20;97.70;;;;;;5096569;28;20047;-74
2022/01/03 10:31:40;;;;;;;16.73;3.38;;;10.30;97.40;;;;;;5092366;28;20059;-77
2022/01/03 10:34:08;;;;;;;22.17;3.05;;;10.30;97.10;;;;;;5079556;28;20048;-76
2022/01/03 10:36:36;;;;;;;17.02;2.97;;;10.30;97.30;;;;;;5095734;28;20051;-76
2022/01/03 10:39:23;;;;;;;15.90;2.38;;;10.30;97.50;;;;;;5095151;28;20104;-76
2022/01/03 10:41:51;;;;;;;17.48;2.30;;;10.30;97.50;;;;;;5095830;28;20043;-76
2022/01/03 10:44:33;;;;;;;18.92;2.45;;;10.30;97.50;;;;;;5096112;28;20063;-76
2022/01/03 10:47:01;;;;;;;19.20;2.75;;;10.40;97.30;;;;;;5078436;28;20058;-76
2022/01/03 10:49:27;;;;;;;13.60;2.33;;;10.40;97.30;;;;;;5095736;28;20104;-76
2022/01/03 10:52:13;;;;;;;15.50;2.25;;;10.40;97.40;;;;;;5095528;28;20447;-75
2022/01/03 10:54:39;;;;;;;20.45;2.58;;;10.40;97.00;;;;;;5094950;28;20108;-76
2022/01/03 10:57:05;;;;;;;19.27;2.05;;;10.40;97.10;;;;;;5095472;28;20087;-75
2022/01/03 10:59:34;;;;;;;23.33;2.90;;;10.40;96.90;;;;;;5113874;28;20079;-75
2022/01/03 11:02:02;;;;;;;19.63;2.90;;;10.50;96.80;;;;;;5077358;28;20052;-75
2022/01/03 11:04:51;;;;;;;15.20;2.15;;;10.50;96.70;;;;;;5075180;28;20052;-75
2022/01/03 11:13:14;;;;;;;18.65;2.13;;;10.60;96.40;;;;;;5074371;28;20563;-75
2022/01/03 11:15:51;;;;;;;20.98;2.50;;;10.70;96.50;;;;;;5074276;28;20048;-76
2022/01/03 11:18:25;;;;;;;16.73;2.70;;;10.70;96.30;;;;;;5074876;28;20048;-75
2022/01/03 11:21:13;;;;;;;17.90;2.28;;;10.70;96.20;;;;;;5057439;28;20048;-75
2022/01/03 11:23:47;;;;;;;16.85;2.50;;;10.70;95.80;;;;;;5074807;28;20055;-74
2022/01/03 11:26:16;;;;;;;19.38;2.67;;;10.80;95.70;;;;;;5089659;28;20051;-76
2022/01/03 11:28:42;;;;;;;14.55;2.40;;;10.90;95.70;;;;;;5093721;28;20043;-75
2022/01/03 11:31:09;;;;;;;17.30;2.10;;;11.00;95.70;;;;;;5079195;28;20043;-75
2022/01/03 11:33:36;;;;;;;12.10;2.13;;;11.10;95.70;;;;;;5094691;28;20112;-75
2022/01/03 11:36:03;;;;;;;17.75;2.05;;;11.20;95.70;;;;;;5085115;28;20131;-73
2022/01/03 11:38:31;;;;;;;18.48;2.28;;;11.30;95.40;;;;;;5090004;28;20048;-74
2022/01/03 11:41:04;;;;;;;16.17;2.33;;;11.40;95.10;;;;;;5076757;28;20051;-75
2022/01/03 11:43:30;;;;;;;;;;;11.40;94.80;;;;;;5094171;28;20499;-75
2022/01/03 11:45:58;;;;;;;22.17;2.97;;;11.40;94.60;;;;;;5075600;28;20025;-76
2022/01/03 11:48:26;;;;;;;16.88;2.78;;;11.40;94.90;;;;;;5084997;28;20044;-75
2022/01/03 11:51:02;;;;;;;25.50;2.97;;;11.40;95.10;;;;;;5072761;28;20492;-75
2022/01/03 11:53:29;;;;;;;22.55;3.08;;;11.40;95.00;;;;;;5069930;28;20518;-74
2022/01/03 11:55:56;;;;;;;19.65;2.72;;;11.40;95.40;;;;;;5076662;28;20053;-75
2022/01/03 11:59:06;;;;;;;23.90;3.70;;;11.50;94.90;;;;;;5092765;28;20043;-75
2022/01/03 12:04:31;;;;;;;25.45;3.15;;;11.40;94.40;;;;;;5079170;28;20087;-75
2022/01/03 12:07:10;;;;;;;18.30;2.42;;;11.40;94.60;;;;;;5076295;28;20086;-75
2022/01/03 12:09:38;;;;;;;16.52;2.47;;;11.50;95.00;;;;;;5094090;28;20074;-75
2022/01/03 12:12:07;;;;;;;25.98;2.97;;;11.50;95.00;;;;;;5112196;28;20050;-75
2022/01/03 12:14:45;;;;;;;15.15;2.58;;;11.60;94.50;;;;;;5112025;28;20040;-75
2022/01/03 12:17:13;;;;;;;20.20;2.67;;;11.60;94.60;;;;;;5074235;28;20058;-75
2022/01/03 12:19:42;;;;;;;19.33;2.53;;;11.50;94.40;;;;;;5094150;28;20376;-76
2022/01/03 12:22:22;;;;;;;16.27;2.35;;;11.60;94.50;;;;;;5094145;28;20495;-75
2022/01/03 12:24:51;;;;;;;25.17;3.05;;;11.60;94.40;;;;;;5072936;28;20378;-76
2022/01/03 12:27:20;;;;;;;15.38;2.30;;;11.60;94.30;;;;;;5073507;28;20048;-75
2022/01/03 12:30:01;;;;;;;14.20;2.55;;;11.70;94.40;;;;;;5088892;28;20403;-76
2022/01/03 12:32:34;;;;;;;18.17;2.38;;;11.80;94.00;;;;;;5075940;28;20458;-76
2022/01/03 12:35:06;;;;;;;21.42;3.22;;;11.90;94.10;;;;;;5073503;28;20060;-76
2022/01/03 12:37:39;;;;;;;19.98;3.08;;;11.90;93.90;;;;;;5076019;28;20124;-76
2022/01/03 12:40:05;;;;;;;21.15;2.42;;;11.90;93.80;;;;;;5093254;28;20048;-76
2022/01/03 12:42:48;;;;;;;22.15;3.03;;;11.80;93.80;;;;;;5093175;28;20046;-75
2022/01/03 12:45:16;;;;;;;19.58;3.28;;;11.80;93.80;;;;;;5092904;28;20050;-76
2022/01/03 12:47:42;;;;;;;20.52;3.35;;;11.80;93.90;;;;;;5091463;28;20408;-76
2022/01/03 12:50:27;;;;;;;22.35;3.40;;;11.80;93.80;;;;;;5093868;28;20514;-75
2022/01/03 12:52:54;;;;;;;26.23;3.22;;;11.80;93.30;;;;;;5091913;28;20055;-75
2022/01/03 12:55:38;;;;;;;16.63;2.60;;;11.80;93.70;;;;;;5093029;28;20043;-75
2022/01/03 12:58:16;;;;;;;26.25;3.15;;;11.80;93.30;;;;;;5093636;28;20840;-75
2022/01/03 13:00:50;;;;;;;16.38;2.20;;;11.80;93.40;;;;;;5092477;28;20048;-75
2022/01/03 13:03:23;;;;;;;20.85;2.85;;;11.70;93.20;;;;;;5093407;28;20047;-75
2022/01/03 13:06:10;;;;;;;20.38;2.75;;;11.80;93.40;;;;;;5092591;28;20150;-75
2022/01/03 13:09:00;;;;;;;18.42;2.78;;;11.90;93.40;;;;;;5083577;28;20123;-75
2022/01/03 13:11:44;;;;;;;18.45;2.83;;;12.10;93.40;;;;;;5073080;28;20092;-75